To NAV CANADA Home Page Login to a new session Search on AWWS site Feedback and Comments Disclaimer Vers la page française équivalente Tips FAQ What's new on the site To the Forecasts and Observations / NOTAM section To "File a Flight Plan" website Publications and other links Update of the User's profile FIC Telephone Numbers My Weather Data Folder Route Weather Data Regional Weather Data Local Weather Data To the Forecasts and Observations / NOTAM section
Request Generated 07/26/2016 at 19:51:22 UTC . Weather information available at that time is displayed.

METAR/TAF

KINDERSLEY/KINDERSLEY REGIONAL/SK    

METAR CYKY 261900Z 14011KT 15SM BKN030 BKN080 20/15 A3013 RMK SC5AC2
SLP203 DENSITY ALT 3100FT=
METAR CYKY 261800Z 14008KT 15SM BKN025 17/15 A3013 RMK SC7 SLP207
DENSITY ALT 2800FT=
SPECI CYKY 261751Z 13009KT 15SM BKN025 17/15 A3013 RMK SC7 SLP208
DENSITY ALT 2700FT=
METAR CYKY 261700Z 15006KT 12SM -SHRA OVC020 16/14 A3014 RMK SC8
CVCTV CLD EMBD SLP210 DENSITY ALT 2600FT=

CYKY - No TAF is issued for this station

Your time UTC time
Weather data provided by Environment Canada and NAV CANADA